createdAt,value
2018-09-17T00:01:07.431Z,12.07
2018-09-17T00:03:35.618Z,11.83
2018-09-17T00:06:03.868Z,11.33
2018-09-17T00:08:32.079Z,12.27
2018-09-17T00:11:00.278Z,11.63
2018-09-17T00:13:28.517Z,12.83
2018-09-17T00:15:56.715Z,12.10
2018-09-17T00:18:24.938Z,12.17
2018-09-17T00:20:53.175Z,12.70
2018-09-17T00:23:21.410Z,13.20
2018-09-17T00:25:49.595Z,12.93
2018-09-17T00:28:17.792Z,13.13
2018-09-17T00:30:45.996Z,11.93
2018-09-17T00:33:14.245Z,13.00
2018-09-17T00:35:42.454Z,12.27
2018-09-17T00:38:10.967Z,12.60
2018-09-17T00:40:39.204Z,12.87
2018-09-17T00:43:07.459Z,12.90
2018-09-17T00:45:35.691Z,13.07
2018-09-17T00:48:03.927Z,12.70
2018-09-17T00:50:32.162Z,12.40
2018-09-17T00:53:00.411Z,12.33
2018-09-17T00:55:28.650Z,12.80
2018-09-17T00:57:56.975Z,12.73
2018-09-17T01:00:25.103Z,13.10
2018-09-17T01:02:53.354Z,12.90
2018-09-17T01:05:21.618Z,12.33
2018-09-17T01:07:49.847Z,12.60
2018-09-17T01:10:18.083Z,12.40
2018-09-17T01:12:46.293Z,12.53
2018-09-17T01:15:14.577Z,12.80
2018-09-17T01:17:42.780Z,12.87
2018-09-17T01:20:11.007Z,12.50
2018-09-17T01:22:39.254Z,12.57
2018-09-17T01:25:07.503Z,12.50
2018-09-17T01:27:35.740Z,12.63
2018-09-17T01:30:04.048Z,13.43
2018-09-17T01:32:32.266Z,13.50
2018-09-17T01:35:00.499Z,12.47
2018-09-17T01:37:28.788Z,12.67
2018-09-17T01:39:57.235Z,12.17
2018-09-17T01:42:25.515Z,12.97
2018-09-17T01:44:53.752Z,13.03
2018-09-17T01:47:22.042Z,13.30
2018-09-17T01:49:50.323Z,12.67
2018-09-17T01:52:18.565Z,13.97
2018-09-17T01:54:46.769Z,13.07
2018-09-17T01:57:14.970Z,13.50
2018-09-17T01:59:43.207Z,13.53
2018-09-17T02:02:11.423Z,13.40
2018-09-17T02:04:39.767Z,12.77
2018-09-17T02:07:08.456Z,13.20
2018-09-17T02:09:39.995Z,12.37
2018-09-17T02:12:10.027Z,12.90
2018-09-17T02:14:38.538Z,12.40
2018-09-17T02:17:07.154Z,12.43
2018-09-17T02:19:35.440Z,12.40
2018-09-17T02:22:03.683Z,13.33
2018-09-17T02:24:31.874Z,13.60
2018-09-17T02:27:00.167Z,13.73
2018-09-17T02:29:28.444Z,13.20
2018-09-17T02:31:56.707Z,12.87
2018-09-17T02:34:24.927Z,13.00
2018-09-17T02:36:53.555Z,12.73
2018-09-17T02:39:21.781Z,12.90
2018-09-17T02:41:50.101Z,12.57
2018-09-17T02:44:18.350Z,13.63
2018-09-17T02:46:46.646Z,13.30
2018-09-17T02:49:14.908Z,12.77
2018-09-17T02:51:43.204Z,13.30
2018-09-17T02:54:11.445Z,12.80
2018-09-17T02:56:39.653Z,13.17
2018-09-17T02:59:07.890Z,12.50
2018-09-17T03:01:36.106Z,12.57
2018-09-17T03:04:04.298Z,13.40
2018-09-17T03:06:32.535Z,12.80
2018-09-17T03:09:00.741Z,13.43
2018-09-17T03:11:28.971Z,13.00
2018-09-17T03:13:57.227Z,13.50
2018-09-17T03:16:25.435Z,13.60
2018-09-17T03:18:54.979Z,13.00
2018-09-17T03:21:23.201Z,13.73
2018-09-17T03:23:51.415Z,12.30
2018-09-17T03:26:20.015Z,13.23
2018-09-17T03:28:48.248Z,13.27
2018-09-17T03:31:16.499Z,13.50
2018-09-17T03:33:44.843Z,14.03
2018-09-17T03:36:13.094Z,13.30
2018-09-17T03:38:48.378Z,13.63
2018-09-17T03:41:17.556Z,14.60
2018-09-17T03:43:47.995Z,14.17
2018-09-17T03:46:16.301Z,12.73
2018-09-17T03:48:44.505Z,13.47
2018-09-17T03:51:13.228Z,13.47
2018-09-17T03:53:41.707Z,13.53
2018-09-17T03:56:09.936Z,13.80
2018-09-17T03:58:38.123Z,13.33
2018-09-17T04:01:06.458Z,13.90
2018-09-17T04:03:34.691Z,14.07
2018-09-17T04:06:02.883Z,13.60
2018-09-17T04:08:32.192Z,13.27
2018-09-17T04:11:00.447Z,14.00
2018-09-17T04:13:28.644Z,13.87
2018-09-17T04:15:56.886Z,13.70
2018-09-17T04:18:25.151Z,13.97
2018-09-17T04:20:53.339Z,14.50
2018-09-17T04:23:34.045Z,13.33
2018-09-17T04:26:03.175Z,13.77
2018-09-17T04:28:31.356Z,13.13
2018-09-17T04:30:59.550Z,13.77
2018-09-17T04:33:29.193Z,12.87
2018-09-17T04:35:57.468Z,12.90
2018-09-17T04:38:25.651Z,13.30
2018-09-17T04:40:54.027Z,13.30
2018-09-17T04:43:22.200Z,13.03
2018-09-17T04:45:50.571Z,13.67
2018-09-17T04:48:18.778Z,13.67
2018-09-17T04:50:46.987Z,12.17
2018-09-17T04:53:15.194Z,13.60
2018-09-17T04:55:43.426Z,12.50
2018-09-17T04:58:11.714Z,12.70
2018-09-17T05:00:39.923Z,12.33
2018-09-17T05:03:08.104Z,12.57
2018-09-17T05:05:36.275Z,14.17
2018-09-17T05:08:04.475Z,13.90
2018-09-17T05:10:32.657Z,13.70
2018-09-17T05:13:00.896Z,13.20
2018-09-17T05:15:29.032Z,12.70
2018-09-17T05:17:57.208Z,12.27
2018-09-17T05:20:25.467Z,12.63
2018-09-17T05:22:53.679Z,13.00
2018-09-17T05:25:21.890Z,12.23
2018-09-17T05:27:50.075Z,12.53
2018-09-17T05:30:18.284Z,12.37
2018-09-17T05:32:46.783Z,12.87
2018-09-17T05:35:14.960Z,14.33
2018-09-17T05:37:43.159Z,13.87
2018-09-17T05:40:11.344Z,12.87
2018-09-17T05:42:39.551Z,13.07
2018-09-17T05:45:07.763Z,13.03
2018-09-17T05:47:35.947Z,13.67
2018-09-17T05:50:04.140Z,15.07
2018-09-17T05:52:32.298Z,14.77
2018-09-17T05:55:00.535Z,13.57
2018-09-17T05:57:28.720Z,13.63
2018-09-17T05:59:56.899Z,13.07
2018-09-17T06:02:25.084Z,14.27
2018-09-17T06:04:53.280Z,13.50
2018-09-17T06:07:21.472Z,13.23
2018-09-17T06:09:50.476Z,13.27
2018-09-17T06:12:18.901Z,12.47
2018-09-17T06:14:47.109Z,12.10
2018-09-17T06:17:15.402Z,13.30
2018-09-17T06:19:43.532Z,13.73
2018-09-17T06:22:11.711Z,12.50
2018-09-17T06:24:39.904Z,19.53
2018-09-17T06:27:08.100Z,18.17
2018-09-17T06:29:36.311Z,38.33
2018-09-17T06:32:04.501Z,60.70
2018-09-17T06:34:32.684Z,25.90
2018-09-17T06:37:00.865Z,13.73
2018-09-17T06:39:29.062Z,12.80
2018-09-17T06:41:57.255Z,14.20
2018-09-17T06:44:25.479Z,14.87
2018-09-17T06:46:53.625Z,12.70
2018-09-17T06:49:21.804Z,13.40
2018-09-17T06:51:50.073Z,13.50
2018-09-17T06:54:18.254Z,12.63
2018-09-17T06:56:46.448Z,13.10
2018-09-17T06:59:14.622Z,12.83
2018-09-17T07:01:42.823Z,12.93
2018-09-17T07:04:11.028Z,13.33
2018-09-17T07:06:39.206Z,13.50
2018-09-17T07:09:08.970Z,14.00
2018-09-17T07:11:37.169Z,13.50
2018-09-17T07:14:05.470Z,14.77
2018-09-17T07:16:33.648Z,15.27
2018-09-17T07:19:01.840Z,13.77
2018-09-17T07:21:30.325Z,12.67
2018-09-17T07:23:58.527Z,13.70
2018-09-17T07:26:26.731Z,13.60
2018-09-17T07:28:54.921Z,12.33
2018-09-17T07:31:23.103Z,12.93
2018-09-17T07:33:51.288Z,13.27
2018-09-17T07:36:19.523Z,12.50
2018-09-17T07:38:47.691Z,13.73
2018-09-17T07:41:15.883Z,12.80
2018-09-17T07:43:44.076Z,13.33
2018-09-17T07:46:12.295Z,13.70
2018-09-17T07:48:40.541Z,12.63
2018-09-17T07:51:08.730Z,13.87
2018-09-17T07:53:36.921Z,14.77
2018-09-17T07:56:05.127Z,14.47
2018-09-17T07:58:33.323Z,13.97
2018-09-17T08:01:01.515Z,13.73
2018-09-17T08:03:29.707Z,13.77
2018-09-17T08:05:57.887Z,13.37
2018-09-17T08:08:26.122Z,14.13
2018-09-17T08:10:54.294Z,13.10
2018-09-17T08:13:22.478Z,13.27
2018-09-17T08:15:50.671Z,13.90
2018-09-17T08:18:18.869Z,12.90
2018-09-17T08:20:47.047Z,13.00
2018-09-17T08:23:15.240Z,12.80
2018-09-17T08:25:43.423Z,13.20
2018-09-17T08:28:11.612Z,13.03
2018-09-17T08:30:39.811Z,12.67
2018-09-17T08:33:08.005Z,12.90
2018-09-17T08:35:36.247Z,12.73
2018-09-17T08:38:04.405Z,13.93
2018-09-17T08:40:32.586Z,13.27
2018-09-17T08:43:00.751Z,12.93
2018-09-17T08:45:28.965Z,14.47
2018-09-17T08:47:57.127Z,13.50
2018-09-17T08:50:25.308Z,14.33
2018-09-17T08:52:53.503Z,13.83
2018-09-17T08:55:26.953Z,13.40
2018-09-17T08:58:01.314Z,12.60
2018-09-17T09:00:35.275Z,13.57
2018-09-17T09:03:08.820Z,11.77
2018-09-17T09:05:43.127Z,12.17
2018-09-17T09:08:11.319Z,13.63
2018-09-17T09:10:44.862Z,13.33
2018-09-17T09:13:18.348Z,12.60
2018-09-17T09:15:46.532Z,12.87
2018-09-17T09:18:14.723Z,12.90
2018-09-17T09:20:42.920Z,12.57
2018-09-17T09:23:11.103Z,11.67
2018-09-17T09:25:39.288Z,11.83
2018-09-17T09:28:07.507Z,12.67
2018-09-17T09:30:35.682Z,11.20
2018-09-17T09:33:03.908Z,10.60
2018-09-17T09:35:32.084Z,10.17
2018-09-17T09:38:00.298Z,10.97
2018-09-17T09:40:28.475Z,11.10
2018-09-17T09:42:56.671Z,10.40
2018-09-17T09:45:24.872Z,11.00
2018-09-17T09:47:53.047Z,11.13
2018-09-17T09:50:21.243Z,11.40
2018-09-17T09:52:49.429Z,10.43
2018-09-17T09:55:17.621Z,12.23
2018-09-17T09:57:45.799Z,11.93
2018-09-17T10:00:19.435Z,11.13
2018-09-17T10:02:48.175Z,11.60
2018-09-17T10:05:16.543Z,11.77
2018-09-17T10:07:44.766Z,10.77
2018-09-17T10:10:18.300Z,10.17
2018-09-17T10:12:52.375Z,10.70
2018-09-17T10:15:25.920Z,11.70
2018-09-17T10:20:01.294Z,10.63
2018-09-17T10:22:29.463Z,11.33
2018-09-17T10:24:57.642Z,10.20
2018-09-17T10:27:25.881Z,11.00
2018-09-17T10:29:54.082Z,10.80
2018-09-17T10:32:22.235Z,11.70
2018-09-17T10:34:50.417Z,10.80
2018-09-17T10:37:18.603Z,10.43
2018-09-17T10:39:46.801Z,10.03
2018-09-17T10:42:14.975Z,10.23
2018-09-17T10:44:43.200Z,9.70
2018-09-17T10:47:11.409Z,10.50
2018-09-17T10:49:39.576Z,9.87
2018-09-17T10:52:07.808Z,10.47
2018-09-17T10:54:36.006Z,10.80
2018-09-17T10:57:04.207Z,10.67
2018-09-17T10:59:32.384Z,10.43
2018-09-17T11:02:00.558Z,10.60
2018-09-17T11:04:28.780Z,10.87
2018-09-17T11:06:56.955Z,11.10
2018-09-17T11:09:25.150Z,10.20
2018-09-17T11:11:53.311Z,10.90
2018-09-17T11:14:21.651Z,10.33
2018-09-17T11:16:49.859Z,11.43
2018-09-17T11:19:18.043Z,10.67
2018-09-17T11:21:46.231Z,11.83
2018-09-17T11:24:14.456Z,11.17
2018-09-17T11:26:42.618Z,11.47
2018-09-17T11:29:10.803Z,10.97
2018-09-17T11:31:38.995Z,10.80
2018-09-17T11:34:07.176Z,10.17
2018-09-17T11:36:35.375Z,10.33
2018-09-17T11:39:04.664Z,12.10
2018-09-17T11:41:32.851Z,10.97
2018-09-17T11:44:01.085Z,10.87
2018-09-17T11:46:29.272Z,10.70
2018-09-17T11:48:57.475Z,11.20
2018-09-17T11:51:25.700Z,11.63
2018-09-17T11:53:53.931Z,9.73
2018-09-17T11:56:22.043Z,10.10
2018-09-17T11:58:50.247Z,10.90
2018-09-17T12:01:25.461Z,10.23
2018-09-17T12:03:58.989Z,10.50
2018-09-17T12:06:32.542Z,10.40
2018-09-17T12:09:00.738Z,11.27
2018-09-17T12:11:28.918Z,10.90
2018-09-17T12:13:57.093Z,11.00
2018-09-17T12:16:25.272Z,10.97
2018-09-17T12:18:53.451Z,10.83
2018-09-17T12:21:21.662Z,10.47
2018-09-17T12:23:49.839Z,10.37
2018-09-17T12:26:18.147Z,11.10
2018-09-17T12:28:46.471Z,10.27
2018-09-17T12:31:14.645Z,10.60
2018-09-17T12:33:42.829Z,10.03
2018-09-17T12:36:11.062Z,10.40
2018-09-17T12:38:39.365Z,11.00
2018-09-17T12:41:07.630Z,10.37
2018-09-17T12:43:35.991Z,10.83
2018-09-17T12:46:04.153Z,11.00
2018-09-17T12:48:32.348Z,10.97
2018-09-17T12:51:00.864Z,10.60
2018-09-17T12:53:29.011Z,11.30
2018-09-17T12:55:57.252Z,11.40
2018-09-17T12:58:25.418Z,10.40
2018-09-17T13:00:53.638Z,10.67
2018-09-17T13:03:22.490Z,10.97
2018-09-17T13:05:50.646Z,11.60
2018-09-17T13:08:19.059Z,11.10
2018-09-17T13:10:47.318Z,11.00
2018-09-17T13:13:15.604Z,10.53
2018-09-17T13:15:48.929Z,11.23
2018-09-17T13:18:17.656Z,11.27
2018-09-17T13:20:45.872Z,11.97
2018-09-17T13:23:14.043Z,11.83
2018-09-17T13:25:42.300Z,10.90
2018-09-17T13:28:11.422Z,11.30
2018-09-17T13:30:39.638Z,11.17
2018-09-17T13:33:07.847Z,11.27
2018-09-17T13:35:36.044Z,12.20
2018-09-17T13:38:04.319Z,11.93
2018-09-17T13:40:33.174Z,12.83
2018-09-17T13:43:01.379Z,12.00
2018-09-17T13:45:29.572Z,11.17
2018-09-17T13:47:57.823Z,11.07
2018-09-17T13:50:26.015Z,11.30
2018-09-17T13:52:54.182Z,12.33
2018-09-17T13:55:22.344Z,12.10
2018-09-17T13:57:50.523Z,13.27
2018-09-17T14:00:18.771Z,12.50
2018-09-17T14:02:46.993Z,12.43
2018-09-17T14:05:15.231Z,11.60
2018-09-17T14:07:43.472Z,12.00
2018-09-17T14:10:11.707Z,12.33
2018-09-17T14:12:39.830Z,12.17
2018-09-17T14:15:08.028Z,12.37
2018-09-17T14:17:36.227Z,11.80
2018-09-17T14:20:04.431Z,12.30
2018-09-17T14:22:32.655Z,11.07
2018-09-17T14:25:00.853Z,12.37
2018-09-17T14:27:29.203Z,11.43
2018-09-17T14:29:57.384Z,13.17
2018-09-17T14:32:30.813Z,11.33
2018-09-17T14:34:59.000Z,12.27
2018-09-17T14:37:27.240Z,12.07
2018-09-17T14:39:55.383Z,12.17
2018-09-17T14:42:23.573Z,11.77
2018-09-17T14:44:51.754Z,11.40
2018-09-17T14:47:19.927Z,11.80
2018-09-17T14:49:48.081Z,11.00
2018-09-17T14:52:16.371Z,11.10
2018-09-17T14:54:44.700Z,11.37
2018-09-17T14:57:12.836Z,12.73
2018-09-17T14:59:41.002Z,11.40
2018-09-17T15:02:09.196Z,12.13
2018-09-17T15:04:37.381Z,12.13
2018-09-17T15:07:05.564Z,13.53
2018-09-17T15:09:33.752Z,11.63
2018-09-17T15:12:01.915Z,12.07
2018-09-17T15:14:30.234Z,10.93
2018-09-17T15:16:58.295Z,11.53
2018-09-17T15:19:26.471Z,11.70
2018-09-17T15:21:54.677Z,11.63
2018-09-17T15:24:22.846Z,11.47
2018-09-17T15:26:51.065Z,10.80
2018-09-17T15:29:19.250Z,10.57
2018-09-17T15:31:47.412Z,12.73
2018-09-17T15:34:15.640Z,11.00
2018-09-17T15:36:43.788Z,12.60
2018-09-17T15:39:13.381Z,11.37
2018-09-17T15:41:41.785Z,11.80
2018-09-17T15:44:10.291Z,13.20
2018-09-17T15:46:38.455Z,10.67
2018-09-17T15:49:06.809Z,11.60
2018-09-17T15:51:35.074Z,11.67
2018-09-17T15:54:03.258Z,11.73
2018-09-17T15:56:31.445Z,11.23
2018-09-17T15:59:00.528Z,11.63
2018-09-17T16:01:28.720Z,10.83
2018-09-17T16:03:57.203Z,10.77
2018-09-17T16:06:25.379Z,11.90
2018-09-17T16:08:53.593Z,12.60
2018-09-17T16:11:21.767Z,11.20
2018-09-17T16:13:50.015Z,11.77
2018-09-17T16:16:18.202Z,11.27
2018-09-17T16:18:46.383Z,11.83
2018-09-17T16:21:14.562Z,10.37
2018-09-17T16:23:42.738Z,11.70
2018-09-17T16:26:10.994Z,11.47
2018-09-17T16:28:39.184Z,10.33
2018-09-17T16:31:07.380Z,11.53
2018-09-17T16:33:35.610Z,11.43
2018-09-17T16:36:03.784Z,10.93
2018-09-17T16:38:32.001Z,11.20
2018-09-17T16:41:00.191Z,11.87
2018-09-17T16:43:28.405Z,10.97
2018-09-17T16:45:56.588Z,10.80
2018-09-17T16:48:24.814Z,11.63
2018-09-17T16:50:53.050Z,12.37
2018-09-17T16:53:21.311Z,12.47
2018-09-17T16:55:49.470Z,14.67
2018-09-17T16:58:18.712Z,19.30
2018-09-17T17:00:46.907Z,16.30
2018-09-17T17:03:15.104Z,16.23
2018-09-17T17:05:43.364Z,17.20
2018-09-17T17:08:11.592Z,14.90
2018-09-17T17:10:39.802Z,14.07
2018-09-17T17:13:08.111Z,15.10
2018-09-17T17:15:36.311Z,13.87
2018-09-17T17:18:04.834Z,19.30
2018-09-17T17:20:33.156Z,20.73
2018-09-17T17:23:01.360Z,16.67
2018-09-17T17:25:29.574Z,14.00
2018-09-17T17:27:57.848Z,14.67
2018-09-17T17:30:26.027Z,12.63
2018-09-17T17:32:54.232Z,11.93
2018-09-17T17:35:22.442Z,12.50
2018-09-17T17:37:50.624Z,13.70
2018-09-17T17:40:18.884Z,13.30
2018-09-17T17:42:46.994Z,12.87
2018-09-17T17:45:15.175Z,12.40
2018-09-17T17:47:43.399Z,12.97
2018-09-17T17:50:11.587Z,12.40
2018-09-17T17:52:39.776Z,12.67
2018-09-17T17:55:08.009Z,13.30
2018-09-17T17:57:38.370Z,12.93
2018-09-17T18:00:08.403Z,12.93
2018-09-17T18:02:37.605Z,12.33
2018-09-17T18:05:06.964Z,12.87
2018-09-17T18:07:36.289Z,11.43
2018-09-17T18:10:05.471Z,13.00
2018-09-17T18:12:34.807Z,12.33
2018-09-17T18:15:03.143Z,11.00
2018-09-17T18:17:31.339Z,11.50
2018-09-17T18:19:59.523Z,10.60
2018-09-17T18:22:27.903Z,13.00
2018-09-17T18:24:56.308Z,15.03
2018-09-17T18:27:25.312Z,13.97
2018-09-17T18:29:53.698Z,10.63
2018-09-17T18:32:21.929Z,10.87
2018-09-17T18:34:51.657Z,12.87
2018-09-17T18:37:20.515Z,13.67
2018-09-17T18:39:48.832Z,11.90
2018-09-17T18:42:19.330Z,12.57
2018-09-17T18:44:48.361Z,13.60
2018-09-17T18:47:16.508Z,12.93
2018-09-17T18:49:44.839Z,12.90
2018-09-17T18:52:13.042Z,11.10
2018-09-17T18:54:41.329Z,10.73
2018-09-17T18:57:09.584Z,10.53
2018-09-17T18:59:37.719Z,11.27
2018-09-17T19:02:07.571Z,12.03
2018-09-17T19:04:35.837Z,10.70
2018-09-17T19:07:04.022Z,10.00
2018-09-17T19:09:37.518Z,10.70
2018-09-17T19:12:05.889Z,11.27
2018-09-17T19:14:39.429Z,11.77
2018-09-17T19:17:14.163Z,11.10
2018-09-17T19:19:43.143Z,11.00
2018-09-17T19:22:16.880Z,10.10
2018-09-17T19:24:44.942Z,9.90
2018-09-17T19:27:13.755Z,9.50
2018-09-17T19:29:42.924Z,12.23
2018-09-17T19:32:11.380Z,12.60
2018-09-17T19:34:40.163Z,12.90
2018-09-17T19:37:13.745Z,11.50
2018-09-17T19:39:47.547Z,10.47
2018-09-17T19:42:15.824Z,10.50
2018-09-17T19:44:48.422Z,10.90
2018-09-17T19:47:17.372Z,10.87
2018-09-17T19:49:47.687Z,10.30
2018-09-17T19:52:18.217Z,10.83
2018-09-17T19:54:46.951Z,10.70
2018-09-17T19:57:20.531Z,10.73
2018-09-17T19:59:52.074Z,10.67
2018-09-17T20:02:20.571Z,10.67
2018-09-17T20:04:53.985Z,10.27
2018-09-17T20:07:22.279Z,10.17
2018-09-17T20:09:50.480Z,10.27
2018-09-17T20:12:18.642Z,10.90
2018-09-17T20:14:46.822Z,10.80
2018-09-17T20:17:15.214Z,11.10
2018-09-17T20:19:43.555Z,10.10
2018-09-17T20:22:12.284Z,10.10
2018-09-17T20:24:41.374Z,11.30
2018-09-17T20:27:09.888Z,11.20
2018-09-17T20:29:38.075Z,10.37
2018-09-17T20:32:06.270Z,10.83
2018-09-17T20:34:34.688Z,10.30
2018-09-17T20:37:02.864Z,11.73
2018-09-17T20:39:31.041Z,10.87
2018-09-17T20:41:59.510Z,10.30
2018-09-17T20:44:27.691Z,11.20
2018-09-17T20:46:55.891Z,11.57
2018-09-17T20:49:24.137Z,12.00
2018-09-17T20:51:52.240Z,12.03
2018-09-17T20:54:20.432Z,11.27
2018-09-17T20:56:48.619Z,11.40
2018-09-17T20:59:16.798Z,11.80
2018-09-17T21:01:45.100Z,11.80
2018-09-17T21:04:13.151Z,10.53
2018-09-17T21:06:41.330Z,10.27
2018-09-17T21:09:10.897Z,11.30
2018-09-17T21:11:39.144Z,11.30
2018-09-17T21:14:07.728Z,11.27
2018-09-17T21:16:36.316Z,11.40
2018-09-17T21:19:04.639Z,11.20
2018-09-17T21:21:32.771Z,10.90
2018-09-17T21:24:01.156Z,11.50
2018-09-17T21:26:29.332Z,11.60
2018-09-17T21:28:57.511Z,11.00
2018-09-17T21:31:25.688Z,11.47
2018-09-17T21:33:53.917Z,11.90
2018-09-17T21:36:22.096Z,12.00
2018-09-17T21:38:50.291Z,11.70
2018-09-17T21:41:18.466Z,11.80
2018-09-17T21:43:46.642Z,12.63
2018-09-17T21:46:14.839Z,12.10
2018-09-17T21:48:43.007Z,13.07
2018-09-17T21:51:11.188Z,12.57
2018-09-17T21:53:39.355Z,12.70
2018-09-17T21:56:07.543Z,11.70
2018-09-17T21:58:35.774Z,11.83
2018-09-17T22:01:04.655Z,11.57
2018-09-17T22:03:34.072Z,12.07
2018-09-17T22:06:02.279Z,12.33
2018-09-17T22:08:30.936Z,12.00
2018-09-17T22:10:59.107Z,12.17
2018-09-17T22:13:27.713Z,11.87
2018-09-17T22:15:55.890Z,12.40
2018-09-17T22:18:24.074Z,12.83
2018-09-17T22:20:52.264Z,12.40
2018-09-17T22:23:20.457Z,12.20
2018-09-17T22:25:48.630Z,12.53
2018-09-17T22:28:16.812Z,11.77
2018-09-17T22:30:45.012Z,11.27
2018-09-17T22:33:13.206Z,11.63
2018-09-17T22:35:41.391Z,12.47
2018-09-17T22:38:09.572Z,12.13
2018-09-17T22:40:37.757Z,12.80
2018-09-17T22:43:06.252Z,12.60
2018-09-17T22:45:34.443Z,12.20
2018-09-17T22:48:02.639Z,12.17
2018-09-17T22:50:30.819Z,11.77
2018-09-17T22:52:59.003Z,12.40
2018-09-17T22:55:27.184Z,12.00
2018-09-17T22:57:55.356Z,12.40
2018-09-17T23:00:23.788Z,12.37
2018-09-17T23:02:51.959Z,11.93
2018-09-17T23:05:20.175Z,12.00
2018-09-17T23:07:48.383Z,12.17
2018-09-17T23:10:16.547Z,12.60
2018-09-17T23:12:44.731Z,12.60
2018-09-17T23:15:12.922Z,12.70
2018-09-17T23:17:41.099Z,12.77
2018-09-17T23:20:09.280Z,12.90
2018-09-17T23:22:37.480Z,12.00
2018-09-17T23:25:05.721Z,11.90
2018-09-17T23:27:33.915Z,11.50
2018-09-17T23:30:02.107Z,12.57
2018-09-17T23:32:30.278Z,12.37
2018-09-17T23:34:58.459Z,12.70
2018-09-17T23:37:26.647Z,12.47
2018-09-17T23:39:54.832Z,13.27
2018-09-17T23:42:23.006Z,13.10
2018-09-17T23:44:51.182Z,12.93
2018-09-17T23:47:19.363Z,12.83
2018-09-17T23:49:47.526Z,12.73
2018-09-17T23:52:15.734Z,13.17
2018-09-17T23:54:43.980Z,12.73
2018-09-17T23:57:12.158Z,12.37
2018-09-17T23:59:40.344Z,13.33
